Musette — WDB9800 — position and weather

sailwx.info

Track history (hours):
 
Tides and Currents Weather Stations Pressure Air Temp Water Temp Dewpoint Dewpoint Depression Visibility Wind Speed Wind Dir Waves Ship Positions

Musette

Owner: Carfi Enterprises, Wellington, FL. More information available from US FCC via Universal Licensing System and Coast Guard Vessel Documentation Center.

Last reported at 2018-Jul-06 03:12 UTC. Time now 2018-Jul-22 08:32 UTC.
Position N 26°07' W 080°08'.
Warning: this ship's position is 16 days out of date.

; draft 2 m.

Type: Ship. MMSI: 366983050.

Date/timePositionNaut miles runAvg speedWind from/ knotsBaromVisibWave heightAir tempDewpointWater temp
2018-Jul-06 03:12N 26°07' W 080°08'1 2.8
2018-Jul-06 02:59N 26°07' W 080°08'2 5.1
2018-Jul-06 02:30N 26°05' W 080°06'3 5.6
2018-Jul-06 01:59N 26°02' W 080°06'3 5.3
2018-Jul-06 01:30N 25°60' W 080°06'4 6.8
2018-Jul-06 00:59N 25°56' W 080°06'4 7.5
2018-Jul-06 00:30N 25°53' W 080°04'3 5.1
2018-Jul-06 00:00N 25°51' W 080°05'3 5.2
2018-Jul-05 23:30N 25°48' W 080°06'3 5.6
2018-Jul-05 23:00N 25°46' W 080°07'4 7.7
2018-Jul-05 22:29N 25°48' W 080°11'0 0.0
2018-Jul-05 03:48N 25°47' W 080°11'0 0.0
2018-Jul-05 03:30N 25°47' W 080°11'0 0.0
2018-Jul-05 03:00N 25°47' W 080°11'0 0.9
2018-Jul-05 02:31N 25°47' W 080°11'0 0.1
2018-Jul-05 02:00N 25°47' W 080°11'1 2.7
2018-Jul-05 01:30N 25°46' W 080°10'1 1.2
2018-Jul-05 01:00N 25°47' W 080°10'0 0.4
2018-Jul-05 00:31N 25°47' W 080°10'1 1.3
2018-Jul-05 00:01N 25°47' W 080°11'1 1.1
2018-Jul-04 23:30N 25°47' W 080°11'0 0.7
2018-Jul-04 23:01N 25°47' W 080°11'1 2.5
2018-Jul-04 22:30N 25°47' W 080°10'3 5.3
2018-Jul-04 22:01N 25°46' W 080°07'3 6.3
2018-Jul-04 21:30N 25°49' W 080°06'4 7.1
2018-Jul-04 21:00N 25°52' W 080°06'3 6.7
2018-Jul-04 20:30N 25°56' W 080°06'3 6.9
2018-Jul-04 20:00N 25°59' W 080°06'3 6.5
2018-Jul-04 19:30N 26°02' W 080°06'3 6.6
2018-Jul-04 19:00N 26°06' W 080°06'2 4.9
2018-Jul-04 18:30N 26°07' W 080°08'0 0.0
2018-Jul-04 18:00N 26°07' W 080°08'0 0.9
2018-Jul-04 17:28N 26°07' W 080°08'1 2.8
2018-Jul-04 17:00N 26°06' W 080°07'1 1.7
2018-Jul-04 16:30N 26°07' W 080°07'2 3.8
2018-Jul-04 15:59N 26°05' W 080°07'2 4.3
2018-Jul-04 15:30N 26°07' W 080°07'1 2.0
2018-Jul-04 14:59N 26°06' W 080°07'2 3.8
2018-Jul-04 14:30N 26°07' W 080°08'0 0.4
2018-Jul-04 14:00N 26°07' W 080°08'0 0.0
2018-Jul-04 11:47N 26°07' W 080°08'  
Track history (hours):
 
Tides and Currents Weather Stations Pressure Air Temp Water Temp Dewpoint Dewpoint Depression Visibility Wind Speed Wind Dir Waves Ship Positions

Musette

Owner: Carfi Enterprises, Wellington, FL. More information available from US FCC via Universal Licensing System and Coast Guard Vessel Documentation Center.

Last reported at 2018-Jul-06 03:12 UTC. Time now 2018-Jul-22 08:32 UTC.
Position N 26°07' W 080°08'.
Warning: this ship's position is 16 days out of date.

; draft 2 m.

Type: Ship. MMSI: 366983050.

Date/timePositionNaut miles runAvg speedWind from/ knotsBaromVisibWave heightAir tempDewpointWater temp
2018-Jul-06 03:12N 26°07' W 080°08'1 2.8
2018-Jul-06 02:59N 26°07' W 080°08'2 5.1
2018-Jul-06 02:30N 26°05' W 080°06'3 5.6
2018-Jul-06 01:59N 26°02' W 080°06'3 5.3
2018-Jul-06 01:30N 25°60' W 080°06'4 6.8
2018-Jul-06 00:59N 25°56' W 080°06'4 7.5
2018-Jul-06 00:30N 25°53' W 080°04'3 5.1
2018-Jul-06 00:00N 25°51' W 080°05'3 5.2
2018-Jul-05 23:30N 25°48' W 080°06'3 5.6
2018-Jul-05 23:00N 25°46' W 080°07'4 7.7
2018-Jul-05 22:29N 25°48' W 080°11'0 0.0
2018-Jul-05 03:48N 25°47' W 080°11'0 0.0
2018-Jul-05 03:30N 25°47' W 080°11'0 0.0
2018-Jul-05 03:00N 25°47' W 080°11'0 0.9
2018-Jul-05 02:31N 25°47' W 080°11'0 0.1
2018-Jul-05 02:00N 25°47' W 080°11'1 2.7
2018-Jul-05 01:30N 25°46' W 080°10'1 1.2
2018-Jul-05 01:00N 25°47' W 080°10'0 0.4
2018-Jul-05 00:31N 25°47' W 080°10'1 1.3
2018-Jul-05 00:01N 25°47' W 080°11'1 1.1
2018-Jul-04 23:30N 25°47' W 080°11'0 0.7
2018-Jul-04 23:01N 25°47' W 080°11'1 2.5
2018-Jul-04 22:30N 25°47' W 080°10'3 5.3
2018-Jul-04 22:01N 25°46' W 080°07'3 6.3
2018-Jul-04 21:30N 25°49' W 080°06'4 7.1
2018-Jul-04 21:00N 25°52' W 080°06'3 6.7
2018-Jul-04 20:30N 25°56' W 080°06'3 6.9
2018-Jul-04 20:00N 25°59' W 080°06'3 6.5
2018-Jul-04 19:30N 26°02' W 080°06'3 6.6
2018-Jul-04 19:00N 26°06' W 080°06'2 4.9
2018-Jul-04 18:30N 26°07' W 080°08'0 0.0
2018-Jul-04 18:00N 26°07' W 080°08'0 0.9
2018-Jul-04 17:28N 26°07' W 080°08'1 2.8
2018-Jul-04 17:00N 26°06' W 080°07'1 1.7
2018-Jul-04 16:30N 26°07' W 080°07'2 3.8
2018-Jul-04 15:59N 26°05' W 080°07'2 4.3
2018-Jul-04 15:30N 26°07' W 080°07'1 2.0
2018-Jul-04 14:59N 26°06' W 080°07'2 3.8
2018-Jul-04 14:30N 26°07' W 080°08'0 0.4
2018-Jul-04 14:00N 26°07' W 080°08'0 0.0
2018-Jul-04 11:47N 26°07' W 080°08'  

Dump ship's entire track history